createdAt,value
2022-10-09T00:02:25.774Z,100984.47
2022-10-09T00:05:28.040Z,100971.12
2022-10-09T00:08:44.753Z,100976.06
2022-10-09T00:11:46.444Z,100979.94
2022-10-09T00:15:00.765Z,100978.63
2022-10-09T00:18:02.594Z,100951.53
2022-10-09T00:21:29.796Z,100958.31
2022-10-09T00:24:37.776Z,100972.16
2022-10-09T00:27:52.793Z,100969.78
2022-10-09T00:30:55.156Z,100965.38
2022-10-09T00:34:09.768Z,100962.69
2022-10-09T00:37:17.795Z,100965.87
2022-10-09T00:40:26.339Z,100964.88
2022-10-09T00:43:46.814Z,100957.44
2022-10-09T00:46:55.434Z,100925.13
2022-10-09T00:50:09.820Z,100945.59
2022-10-09T00:53:27.814Z,100951.87
2022-10-09T00:56:29.620Z,100946.63
2022-10-09T00:59:46.769Z,100943.38
2022-10-09T01:03:01.808Z,100936.97
2022-10-09T01:06:31.805Z,100931.53
2022-10-09T01:09:53.800Z,100935.06
2022-10-09T01:13:22.358Z,100929.84
2022-10-09T01:16:35.806Z,100930.84
2022-10-09T01:20:09.806Z,100928.28
2022-10-09T01:23:43.444Z,100928.44
2022-10-09T01:27:00.791Z,100933.69
2022-10-09T01:30:18.861Z,100930.31
2022-10-09T01:33:20.642Z,100936.06
2022-10-09T01:36:36.845Z,100931.50
2022-10-09T01:39:53.813Z,100929.81
2022-10-09T01:43:02.699Z,100926.72
2022-10-09T01:46:36.006Z,100929.13
2022-10-09T01:49:56.819Z,100930.16
2022-10-09T01:53:09.555Z,100938.37
2022-10-09T01:56:23.854Z,100934.84
2022-10-09T01:59:39.471Z,100935.22
2022-10-09T02:02:49.111Z,100935.72
2022-10-09T02:05:58.208Z,100938.59
2022-10-09T02:09:07.827Z,100933.19
2022-10-09T02:12:18.798Z,100937.91
2022-10-09T02:15:28.885Z,100945.66
2022-10-09T02:18:49.846Z,100943.97
2022-10-09T02:22:13.867Z,100940.25
2022-10-09T02:25:28.885Z,100947.03
2022-10-09T02:28:39.076Z,100946.38
2022-10-09T02:31:48.430Z,100944.12
2022-10-09T02:34:57.863Z,100945.81
2022-10-09T02:38:12.815Z,100951.22
2022-10-09T02:41:28.841Z,100958.66
2022-10-09T02:44:30.582Z,100955.28
2022-10-09T02:47:44.870Z,100964.06
2022-10-09T02:50:46.600Z,100963.72
2022-10-09T02:54:01.866Z,100961.69
2022-10-09T02:57:10.405Z,100972.00
2022-10-09T03:00:18.857Z,100976.56
2022-10-09T03:03:27.360Z,100972.37
2022-10-09T03:06:40.055Z,100986.03
2022-10-09T03:09:54.841Z,100980.78
2022-10-09T03:12:56.656Z,100986.37
2022-10-09T03:16:12.996Z,100974.53
2022-10-09T03:19:21.843Z,100975.09
2022-10-09T03:22:37.110Z,100976.78
2022-10-09T03:25:45.839Z,100975.72
2022-10-09T03:28:55.826Z,100979.59
2022-10-09T03:32:10.988Z,100988.22
2022-10-09T03:35:19.502Z,100989.91
2022-10-09T03:38:33.920Z,100989.56
2022-10-09T03:41:41.924Z,100994.81
2022-10-09T03:44:50.396Z,100992.44
2022-10-09T03:47:58.863Z,100985.38
2022-10-09T03:51:07.388Z,100992.87
2022-10-09T03:54:21.868Z,100987.16
2022-10-09T03:57:30.606Z,100991.59
2022-10-09T04:00:45.951Z,100990.25
2022-10-09T04:03:53.884Z,100999.94
2022-10-09T04:07:08.894Z,101011.50
2022-10-09T04:10:11.080Z,101003.22
2022-10-09T04:13:25.912Z,101004.56
2022-10-09T04:16:33.939Z,101003.72
2022-10-09T04:19:42.445Z,101002.56
2022-10-09T04:23:03.883Z,101007.81
2022-10-09T04:26:12.904Z,100984.28
2022-10-09T04:29:27.879Z,100994.09
2022-10-09T04:32:36.552Z,101004.09
2022-10-09T04:35:48.917Z,101010.50
2022-10-09T04:39:03.893Z,101011.19
2022-10-09T04:42:12.554Z,101018.12
2022-10-09T04:45:20.934Z,101018.12
2022-10-09T04:48:35.911Z,101014.25
2022-10-09T04:51:43.899Z,101021.66
2022-10-09T04:54:52.508Z,101027.06
2022-10-09T04:58:00.998Z,101043.47
2022-10-09T05:01:20.030Z,101061.91
2022-10-09T05:04:21.893Z,101052.97
2022-10-09T05:07:36.927Z,101062.78
2022-10-09T05:10:51.915Z,101066.81
2022-10-09T05:13:55.640Z,101052.97
2022-10-09T05:17:14.165Z,101053.66
2022-10-09T05:20:29.190Z,101058.91
2022-10-09T05:23:43.921Z,101059.56
2022-10-09T05:26:45.643Z,101063.97
2022-10-09T05:29:59.927Z,101056.53
2022-10-09T05:33:08.687Z,101075.13
2022-10-09T05:36:16.989Z,101086.34
2022-10-09T05:39:25.620Z,101082.06
2022-10-09T05:42:39.931Z,101084.47
2022-10-09T05:45:47.945Z,101085.81
2022-10-09T05:48:58.911Z,101095.47
2022-10-09T05:52:13.973Z,101093.44
2022-10-09T05:55:22.509Z,101104.94
2022-10-09T05:58:36.951Z,101108.31
2022-10-09T06:01:55.116Z,101103.75
2022-10-09T06:04:56.907Z,101110.00
2022-10-09T06:08:11.983Z,101107.31
2022-10-09T06:11:17.224Z,101117.12
2022-10-09T06:14:31.926Z,101110.34
2022-10-09T06:17:33.939Z,101125.75
2022-10-09T06:21:02.950Z,101127.94
2022-10-09T06:24:22.261Z,101129.28
2022-10-09T06:27:39.927Z,101136.03
2022-10-09T06:30:41.726Z,101138.94
2022-10-09T06:33:56.983Z,101145.37
2022-10-09T06:36:58.727Z,101149.81
2022-10-09T06:40:13.959Z,101156.28
2022-10-09T06:43:28.978Z,101156.25
2022-10-09T06:46:40.805Z,101151.69
2022-10-09T06:49:56.003Z,101153.09
2022-10-09T06:53:03.978Z,101159.00
2022-10-09T06:56:13.083Z,101175.09
2022-10-09T06:59:27.974Z,101171.38
2022-10-09T07:02:40.459Z,101173.09
2022-10-09T07:05:50.963Z,101171.41
2022-10-09T07:09:02.436Z,101174.28
2022-10-09T07:12:11.032Z,101175.50
2022-10-09T07:15:19.534Z,101173.81
2022-10-09T07:18:34.015Z,101180.38
2022-10-09T07:21:46.226Z,101181.22
2022-10-09T07:25:01.179Z,101180.19
2022-10-09T07:28:03.061Z,101185.78
2022-10-09T07:31:19.038Z,101194.22
2022-10-09T07:34:27.026Z,101189.44
2022-10-09T07:37:35.583Z,101181.28
2022-10-09T07:40:50.001Z,101189.91
2022-10-09T07:43:59.051Z,101191.75
2022-10-09T07:47:14.108Z,101189.28
2022-10-09T07:50:23.062Z,101198.06
2022-10-09T07:53:38.059Z,101196.81
2022-10-09T07:56:53.027Z,101195.28
2022-10-09T07:59:54.724Z,101203.72
2022-10-09T08:03:09.083Z,101197.75
2022-10-09T08:06:10.898Z,101198.41
2022-10-09T08:09:26.015Z,101199.56
2022-10-09T08:12:34.039Z,101198.00
2022-10-09T08:15:43.850Z,101203.31
2022-10-09T08:18:51.991Z,101209.16
2022-10-09T08:22:07.316Z,101207.97
2022-10-09T08:25:16.078Z,101204.50
2022-10-09T08:28:25.071Z,101209.72
2022-10-09T08:31:35.071Z,101205.25
2022-10-09T08:34:43.554Z,101217.72
2022-10-09T08:37:52.007Z,101220.37
2022-10-09T08:41:15.029Z,101223.00
2022-10-09T08:44:29.256Z,101225.00
2022-10-09T08:47:54.119Z,101222.19
2022-10-09T08:50:58.770Z,101230.63
2022-10-09T08:54:31.067Z,101234.31
2022-10-09T08:57:39.889Z,101234.81
2022-10-09T09:01:09.086Z,101245.59
2022-10-09T09:04:36.004Z,101247.00
2022-10-09T09:08:07.054Z,101237.84
2022-10-09T09:11:28.752Z,101247.22
2022-10-09T09:15:05.048Z,101257.88
2022-10-09T09:18:32.306Z,101243.31
2022-10-09T09:21:55.043Z,101245.16
2022-10-09T09:24:58.620Z,101250.97
2022-10-09T09:28:27.110Z,101251.31
2022-10-09T09:31:34.749Z,101255.78
2022-10-09T09:34:49.095Z,101267.22
2022-10-09T09:37:50.990Z,101256.63
2022-10-09T09:41:06.082Z,101262.31
2022-10-09T09:44:17.139Z,101270.09
2022-10-09T09:47:34.527Z,101265.03
2022-10-09T09:50:52.932Z,101262.00
2022-10-09T09:54:24.079Z,101255.91
2022-10-09T09:57:41.124Z,101257.06
2022-10-09T10:01:00.281Z,101260.25
2022-10-09T10:04:10.096Z,101259.19
2022-10-09T10:07:29.932Z,101262.47
2022-10-09T10:10:39.089Z,101265.78
2022-10-09T10:13:49.112Z,101268.09
2022-10-09T10:17:00.090Z,101270.97
2022-10-09T10:20:15.115Z,101268.06
2022-10-09T10:23:36.379Z,101272.16
2022-10-09T10:26:50.087Z,101266.44
2022-10-09T10:30:09.112Z,101267.22
2022-10-09T10:33:21.108Z,101262.75
2022-10-09T10:36:36.156Z,101264.03
2022-10-09T10:39:45.863Z,101264.75
2022-10-09T10:43:21.100Z,101260.25
2022-10-09T10:46:44.121Z,101268.66
2022-10-09T10:49:53.232Z,101268.00
2022-10-09T10:53:23.159Z,101271.22
2022-10-09T10:56:40.197Z,101278.59
2022-10-09T11:00:10.110Z,101267.56
2022-10-09T11:03:41.807Z,101262.03
2022-10-09T11:07:09.125Z,101264.03
2022-10-09T11:10:38.139Z,101254.53
2022-10-09T11:14:01.910Z,101253.13
2022-10-09T11:17:37.140Z,101258.69
2022-10-09T11:21:10.113Z,101250.28
2022-10-09T11:25:05.146Z,101253.53
2022-10-09T11:28:19.386Z,101256.50
2022-10-09T11:31:42.198Z,101252.47
2022-10-09T11:35:14.129Z,101241.59
2022-10-09T11:38:27.115Z,101244.22
2022-10-09T11:41:43.160Z,101245.97
2022-10-09T11:45:12.125Z,101243.41
2022-10-09T11:48:48.023Z,101238.66
2022-10-09T11:52:09.188Z,101236.31
2022-10-09T11:55:23.690Z,101232.94
2022-10-09T11:58:32.136Z,101225.25
2022-10-09T12:01:42.165Z,101225.97
2022-10-09T12:04:54.847Z,101218.44
2022-10-09T12:08:26.262Z,101223.69
2022-10-09T12:11:36.156Z,101202.00
2022-10-09T12:14:47.999Z,101213.97
2022-10-09T12:18:03.188Z,101216.87
2022-10-09T12:21:24.664Z,101218.00
2022-10-09T12:24:51.225Z,101214.91
2022-10-09T12:28:07.457Z,101223.37
2022-10-09T12:31:26.213Z,101229.34
2022-10-09T12:34:48.211Z,101226.66
2022-10-09T12:38:03.202Z,101229.16
2022-10-09T12:41:20.277Z,101228.19
2022-10-09T12:44:35.969Z,101213.28
2022-10-09T12:47:50.199Z,101218.47
2022-10-09T12:50:53.188Z,101213.19
2022-10-09T12:54:15.220Z,101211.66
2022-10-09T12:57:31.175Z,101211.22
2022-10-09T13:00:40.422Z,101209.75
2022-10-09T13:03:58.541Z,101199.06
2022-10-09T13:07:18.605Z,101203.72
2022-10-09T13:10:36.189Z,101197.53
2022-10-09T13:13:45.332Z,101195.50
2022-10-09T13:17:00.319Z,101196.03
2022-10-09T13:20:25.371Z,101192.63
2022-10-09T13:23:48.024Z,101186.94
2022-10-09T13:26:49.760Z,101188.72
2022-10-09T13:30:04.279Z,101191.69
2022-10-09T13:33:20.236Z,101190.06
2022-10-09T13:36:35.244Z,101187.56
2022-10-09T13:39:43.832Z,101182.72
2022-10-09T13:43:02.251Z,101183.16
2022-10-09T13:46:10.824Z,101182.44
2022-10-09T13:49:19.220Z,101181.22
2022-10-09T13:52:34.266Z,101176.78
2022-10-09T13:55:49.220Z,101179.03
2022-10-09T13:58:58.331Z,101174.75
2022-10-09T14:02:07.564Z,101168.78
2022-10-09T14:05:15.826Z,101170.03
2022-10-09T14:08:32.504Z,101162.69
2022-10-09T14:11:34.796Z,101171.91
2022-10-09T14:14:49.254Z,101169.59
2022-10-09T14:17:51.376Z,101174.00
2022-10-09T14:21:06.283Z,101170.78
2022-10-09T14:24:14.593Z,101168.63
2022-10-09T14:27:29.337Z,101170.91
2022-10-09T14:30:38.296Z,101169.41
2022-10-09T14:33:48.354Z,101163.31
2022-10-09T14:36:57.295Z,101161.69
2022-10-09T14:40:12.267Z,101164.88
2022-10-09T14:43:20.276Z,101162.03
2022-10-09T14:46:30.047Z,101168.34
2022-10-09T14:49:38.284Z,101175.03
2022-10-09T14:52:47.018Z,101167.06
2022-10-09T14:55:55.302Z,101168.94
2022-10-09T14:59:05.362Z,101164.97
2022-10-09T15:02:22.296Z,101164.50
2022-10-09T15:05:30.903Z,101166.94
2022-10-09T15:08:41.314Z,101174.50
2022-10-09T15:11:56.283Z,101176.53
2022-10-09T15:14:58.030Z,101181.03
2022-10-09T15:18:12.312Z,101171.69
2022-10-09T15:21:37.278Z,101176.41
2022-10-09T15:24:39.057Z,101182.44
2022-10-09T15:27:55.060Z,101178.22
2022-10-09T15:31:07.304Z,101184.62
2022-10-09T15:34:18.170Z,101191.91
2022-10-09T15:37:33.486Z,101195.66
2022-10-09T15:40:50.462Z,101190.75
2022-10-09T15:44:01.066Z,101202.06
2022-10-09T15:47:09.305Z,101197.00
2022-10-09T15:50:20.424Z,101197.00
2022-10-09T15:53:30.331Z,101200.47
2022-10-09T15:56:45.333Z,101192.53
2022-10-09T15:59:47.172Z,101199.78
2022-10-09T16:03:02.346Z,101201.28
2022-10-09T16:06:14.283Z,101194.81
2022-10-09T16:09:30.383Z,101209.34
2022-10-09T16:12:32.143Z,101214.22
2022-10-09T16:15:48.342Z,101219.75
2022-10-09T16:18:51.244Z,101218.12
2022-10-09T16:22:06.310Z,101221.75
2022-10-09T16:25:21.302Z,101220.97
2022-10-09T16:28:30.844Z,101226.31
2022-10-09T16:31:42.300Z,101218.00
2022-10-09T16:34:50.888Z,101232.16
2022-10-09T16:37:59.339Z,101234.56
2022-10-09T16:41:19.381Z,101237.31
2022-10-09T16:44:28.348Z,101242.47
2022-10-09T16:47:36.963Z,101239.16
2022-10-09T16:50:47.362Z,101251.75
2022-10-09T16:53:59.423Z,101218.19
2022-10-09T16:57:07.347Z,101258.91
2022-10-09T17:00:19.374Z,101256.75
2022-10-09T17:03:28.347Z,101258.28
2022-10-09T17:06:46.363Z,101263.56
2022-10-09T17:09:48.194Z,101261.22
2022-10-09T17:13:10.456Z,101260.91
2022-10-09T17:16:28.347Z,101270.78
2022-10-09T17:19:44.392Z,101274.37
2022-10-09T17:22:52.661Z,101265.72
2022-10-09T17:26:17.388Z,101268.94
2022-10-09T17:29:25.374Z,101275.09
2022-10-09T17:32:33.888Z,101271.37
2022-10-09T17:35:48.342Z,101275.62
2022-10-09T17:38:50.739Z,101272.56
2022-10-09T17:42:05.359Z,101283.97
2022-10-09T17:45:08.576Z,101286.16
2022-10-09T17:48:24.350Z,101291.75
2022-10-09T17:51:39.378Z,101292.28
2022-10-09T17:54:48.031Z,101293.44
2022-10-09T17:57:56.424Z,101291.94
2022-10-09T18:01:07.428Z,101288.19
2022-10-09T18:04:21.386Z,101297.19
2022-10-09T18:07:30.117Z,101293.47
2022-10-09T18:10:38.430Z,101286.34
2022-10-09T18:13:47.520Z,101290.59
2022-10-09T18:17:02.375Z,101292.44
2022-10-09T18:20:11.393Z,101289.56
2022-10-09T18:23:26.660Z,101285.69
2022-10-09T18:26:35.430Z,101300.59
2022-10-09T18:29:44.017Z,101306.00
2022-10-09T18:32:52.842Z,101306.00
2022-10-09T18:36:12.419Z,101310.09
2022-10-09T18:39:14.950Z,101315.50
2022-10-09T18:42:29.455Z,101319.56
2022-10-09T18:45:31.541Z,101325.50
2022-10-09T18:48:47.403Z,101340.91
2022-10-09T18:52:03.407Z,101335.97
2022-10-09T18:55:14.952Z,101352.41
2022-10-09T18:58:23.462Z,101350.38
2022-10-09T19:01:32.210Z,101349.69
2022-10-09T19:04:47.479Z,101352.25
2022-10-09T19:07:56.174Z,101351.09
2022-10-09T19:11:04.455Z,101328.34
2022-10-09T19:14:13.928Z,101345.16
2022-10-09T19:17:22.444Z,101353.78
2022-10-09T19:20:40.473Z,101356.38
2022-10-09T19:23:50.843Z,101366.38
2022-10-09T19:27:06.420Z,101363.66
2022-10-09T19:30:09.011Z,101363.25
2022-10-09T19:33:24.494Z,101369.37
2022-10-09T19:36:26.259Z,101379.13
2022-10-09T19:39:41.437Z,101378.59
2022-10-09T19:42:50.113Z,101378.72
2022-10-09T19:46:09.503Z,101389.69
2022-10-09T19:49:18.212Z,101384.12
2022-10-09T19:52:32.486Z,101398.66
2022-10-09T19:55:41.226Z,101398.50
2022-10-09T19:58:51.443Z,101400.69
2022-10-09T20:02:00.036Z,101397.09
2022-10-09T20:05:08.479Z,101402.16
2022-10-09T20:08:17.444Z,101415.19
2022-10-09T20:11:26.470Z,101416.50
2022-10-09T20:14:41.427Z,101415.44
2022-10-09T20:17:50.026Z,101408.34
2022-10-09T20:21:04.431Z,101423.06
2022-10-09T20:24:12.752Z,101420.13
2022-10-09T20:27:27.473Z,101418.69
2022-10-09T20:30:36.060Z,101419.19
2022-10-09T20:33:54.459Z,101408.81
2022-10-09T20:36:56.178Z,101418.53
2022-10-09T20:40:11.476Z,101414.62
2022-10-09T20:43:22.643Z,101419.66
2022-10-09T20:46:34.693Z,101421.13
2022-10-09T20:49:43.550Z,101434.41
2022-10-09T20:52:52.527Z,101434.41
2022-10-09T20:56:07.485Z,101427.78
2022-10-09T20:59:17.266Z,101435.34
2022-10-09T21:02:25.540Z,101425.53
2022-10-09T21:05:46.482Z,101430.66
2022-10-09T21:08:55.494Z,101436.81
2022-10-09T21:12:10.494Z,101435.81
2022-10-09T21:15:12.251Z,101436.41
2022-10-09T21:18:26.496Z,101435.56
2022-10-09T21:21:29.879Z,101435.88
2022-10-09T21:24:51.488Z,101441.44
2022-10-09T21:27:59.542Z,101433.94
2022-10-09T21:31:09.375Z,101430.22
2022-10-09T21:34:24.525Z,101440.81
2022-10-09T21:37:35.605Z,101437.63
2022-10-09T21:40:46.701Z,101445.50
2022-10-09T21:44:01.491Z,101437.53
2022-10-09T21:47:09.536Z,101432.19
2022-10-09T21:50:18.177Z,101438.66
2022-10-09T21:53:26.532Z,101435.41
2022-10-09T21:56:35.322Z,101424.03
2022-10-09T21:59:43.501Z,101426.87
2022-10-09T22:02:52.410Z,101428.34
2022-10-09T22:06:17.779Z,101434.19
2022-10-09T22:09:27.515Z,101424.97
2022-10-09T22:12:36.127Z,101429.63
2022-10-09T22:15:51.597Z,101436.63
2022-10-09T22:18:59.511Z,101431.09
2022-10-09T22:22:08.250Z,101434.50
2022-10-09T22:25:29.527Z,101433.66
2022-10-09T22:28:31.818Z,101442.81
2022-10-09T22:31:46.563Z,101435.00
2022-10-09T22:34:57.529Z,101437.56
2022-10-09T22:38:12.565Z,101437.25
2022-10-09T22:41:18.196Z,101435.12
2022-10-09T22:44:32.533Z,101445.06
2022-10-09T22:47:41.087Z,101444.22
2022-10-09T22:50:55.507Z,101445.22
2022-10-09T22:54:04.909Z,101445.22
2022-10-09T22:57:19.528Z,101439.12
2022-10-09T23:00:28.196Z,101440.53
2022-10-09T23:03:36.515Z,101443.53
2022-10-09T23:06:45.935Z,101447.06
2022-10-09T23:09:54.532Z,101447.94
2022-10-09T23:13:03.077Z,101455.75
2022-10-09T23:16:18.623Z,101456.03
2022-10-09T23:19:27.151Z,101459.03
2022-10-09T23:22:41.537Z,101461.59
2022-10-09T23:25:56.615Z,101468.84
2022-10-09T23:29:14.526Z,101461.72
2022-10-09T23:32:23.197Z,101463.87
2022-10-09T23:35:38.555Z,101460.75
2022-10-09T23:38:41.022Z,101463.31
2022-10-09T23:41:55.554Z,101455.50
2022-10-09T23:44:57.352Z,101463.59
2022-10-09T23:48:11.567Z,101456.50
2022-10-09T23:51:14.975Z,101466.47
2022-10-09T23:54:29.587Z,101460.22
2022-10-09T23:57:44.647Z,101432.25
